createdAt,value
2023-05-13T00:01:04.229Z,14
2023-05-13T00:02:01.697Z,14
2023-05-13T00:03:01.750Z,14
2023-05-13T00:04:01.728Z,13.9
2023-05-13T00:05:01.715Z,14
2023-05-13T00:06:05.806Z,14
2023-05-13T00:07:04.021Z,14
2023-05-13T00:08:01.140Z,14
2023-05-13T00:09:01.086Z,13.9
2023-05-13T00:10:01.222Z,13.9
2023-05-13T00:11:09.815Z,13.9
2023-05-13T00:12:01.091Z,13.8
2023-05-13T00:13:01.105Z,13.9
2023-05-13T00:14:01.197Z,13.8
2023-05-13T00:15:01.709Z,13.8
2023-05-13T00:16:11.574Z,13.8
2023-05-13T00:17:00.800Z,13.8
2023-05-13T00:18:01.252Z,13.8
2023-05-13T00:19:01.993Z,13.8
2023-05-13T00:20:02.580Z,13.8
2023-05-13T00:21:15.555Z,13.8
2023-05-13T00:22:01.458Z,13.7
2023-05-13T00:23:01.070Z,13.7
2023-05-13T00:24:01.570Z,13.6
2023-05-13T00:25:01.020Z,13.6
2023-05-13T00:26:00.683Z,13.6
2023-05-13T00:27:00.374Z,13.6
2023-05-13T00:27:59.967Z,13.6
2023-05-13T00:29:01.105Z,13.6
2023-05-13T00:30:01.739Z,13.6
2023-05-13T00:31:01.118Z,13.6
2023-05-13T00:32:01.410Z,13.6
2023-05-13T00:33:01.067Z,13.6
2023-05-13T00:34:00.732Z,13.6
2023-05-13T00:35:01.034Z,13.6
2023-05-13T00:36:01.058Z,13.6
2023-05-13T00:37:01.068Z,13.6
2023-05-13T00:38:01.059Z,13.6
2023-05-13T00:39:00.646Z,13.5
2023-05-13T00:40:00.664Z,13.5
2023-05-13T00:41:00.270Z,13.5
2023-05-13T00:41:59.838Z,13.4
2023-05-13T00:43:01.466Z,13.4
2023-05-13T00:44:01.028Z,13.4
2023-05-13T00:45:01.117Z,13.3
2023-05-13T00:46:01.186Z,13.3
2023-05-13T00:47:01.117Z,13.3
2023-05-13T00:48:01.561Z,13.3
2023-05-13T00:49:01.138Z,13.3
2023-05-13T00:50:01.220Z,13.3
2023-05-13T00:51:01.053Z,13.3
2023-05-13T00:52:01.055Z,13.3
2023-05-13T00:53:01.058Z,13.2
2023-05-13T00:54:01.864Z,13.2
2023-05-13T00:55:01.083Z,13.2
2023-05-13T00:56:01.091Z,13.2
2023-05-13T00:57:01.603Z,13.1
2023-05-13T00:58:01.276Z,13.2
2023-05-13T00:59:02.262Z,13.1
2023-05-13T01:00:01.942Z,13.1
2023-05-13T01:01:02.600Z,13.1
2023-05-13T01:02:01.146Z,13.1
2023-05-13T01:03:01.217Z,13.2
2023-05-13T01:04:01.267Z,13.2
2023-05-13T01:05:01.373Z,13.2
2023-05-13T01:06:01.420Z,13.2
2023-05-13T01:07:01.040Z,13.1
2023-05-13T01:08:01.350Z,13.2
2023-05-13T01:09:01.073Z,13.1
2023-05-13T01:10:01.067Z,13.1
2023-05-13T01:11:02.083Z,13.1
2023-05-13T01:12:02.558Z,13.1
2023-05-13T01:13:01.313Z,13.1
2023-05-13T01:14:01.504Z,13.1
2023-05-13T01:15:04.112Z,13
2023-05-13T01:16:01.343Z,13
2023-05-13T01:17:01.605Z,13
2023-05-13T01:18:00.779Z,13
2023-05-13T01:19:00.550Z,13
2023-05-13T01:20:00.503Z,12.9
2023-05-13T01:21:00.316Z,12.9
2023-05-13T01:22:00.407Z,12.8
2023-05-13T01:23:00.246Z,12.8
2023-05-13T01:23:59.868Z,12.8
2023-05-13T01:24:59.530Z,12.8
2023-05-13T01:26:01.233Z,12.8
2023-05-13T01:27:01.066Z,12.8
2023-05-13T01:28:01.245Z,12.8
2023-05-13T01:29:01.087Z,12.7
2023-05-13T01:30:01.874Z,12.7
2023-05-13T01:31:01.217Z,12.7
2023-05-13T01:32:02.049Z,12.6
2023-05-13T01:33:02.575Z,12.6
2023-05-13T01:34:01.028Z,12.7
2023-05-13T01:35:01.110Z,12.6
2023-05-13T01:36:01.114Z,12.6
2023-05-13T01:37:01.410Z,12.6
2023-05-13T01:38:01.035Z,12.6
2023-05-13T01:39:00.560Z,12.5
2023-05-13T01:40:00.214Z,12.5
2023-05-13T01:40:59.812Z,12.6
2023-05-13T01:42:01.753Z,12.6
2023-05-13T01:43:01.349Z,12.6
2023-05-13T01:44:00.950Z,12.6
2023-05-13T01:45:01.067Z,12.6
2023-05-13T01:46:01.256Z,12.6
2023-05-13T01:47:02.192Z,12.6
2023-05-13T01:48:02.044Z,12.5
2023-05-13T01:49:01.105Z,12.5
2023-05-13T01:50:01.119Z,12.5
2023-05-13T01:51:02.134Z,12.5
2023-05-13T01:52:05.256Z,12.5
2023-05-13T01:53:01.152Z,12.5
2023-05-13T01:54:01.171Z,12.5
2023-05-13T01:55:01.414Z,12.5
2023-05-13T01:56:01.916Z,12.4
2023-05-13T01:57:07.754Z,12.4
2023-05-13T01:58:01.733Z,12.4
2023-05-13T01:59:01.761Z,12.3
2023-05-13T02:00:01.995Z,12.3
2023-05-13T02:01:01.756Z,12.3
2023-05-13T02:02:10.557Z,12.3
2023-05-13T02:03:01.538Z,12.3
2023-05-13T02:04:01.545Z,12.3
2023-05-13T02:05:01.405Z,12.3
2023-05-13T02:06:01.021Z,12.2
2023-05-13T02:07:13.412Z,12.3
2023-05-13T02:08:01.017Z,12.2
2023-05-13T02:09:01.042Z,12.3
2023-05-13T02:10:01.076Z,12.3
2023-05-13T02:11:01.063Z,12.3
2023-05-13T02:12:16.369Z,12.3
2023-05-13T02:13:01.056Z,12.3
2023-05-13T02:14:02.354Z,12.2
2023-05-13T02:15:01.773Z,12.2
2023-05-13T02:16:01.502Z,12.2
2023-05-13T02:17:01.108Z,12.1
2023-05-13T02:18:01.238Z,12.1
2023-05-13T02:19:01.135Z,12.1
2023-05-13T02:20:01.132Z,12.1
2023-05-13T02:21:01.045Z,12.1
2023-05-13T02:22:01.494Z,12.1
2023-05-13T02:23:01.117Z,12.1
2023-05-13T02:24:01.027Z,12.1
2023-05-13T02:25:01.024Z,12.1
2023-05-13T02:26:01.033Z,12
2023-05-13T02:27:01.036Z,12
2023-05-13T02:28:01.340Z,12
2023-05-13T02:29:01.428Z,12
2023-05-13T02:30:02.244Z,12
2023-05-13T02:31:02.880Z,11.9
2023-05-13T02:32:01.134Z,11.9
2023-05-13T02:33:01.180Z,11.9
2023-05-13T02:34:01.897Z,11.9
2023-05-13T02:35:01.643Z,11.8
2023-05-13T02:36:01.123Z,11.9
2023-05-13T02:37:01.873Z,11.8
2023-05-13T02:38:02.169Z,11.8
2023-05-13T02:39:01.493Z,11.8
2023-05-13T02:40:01.125Z,11.8
2023-05-13T02:41:01.028Z,11.8
2023-05-13T02:42:01.037Z,11.8
2023-05-13T02:43:01.024Z,11.8
2023-05-13T02:44:01.436Z,11.7
2023-05-13T02:45:01.050Z,11.6
2023-05-13T02:46:01.029Z,11.6
2023-05-13T02:47:01.088Z,11.6
2023-05-13T02:48:01.117Z,11.6
2023-05-13T02:49:01.078Z,11.6
2023-05-13T02:50:01.121Z,11.6
2023-05-13T02:51:01.093Z,11.6
2023-05-13T02:52:01.116Z,11.6
2023-05-13T02:53:01.486Z,11.6
2023-05-13T02:54:01.402Z,11.6
2023-05-13T02:55:01.043Z,11.6
2023-05-13T02:56:00.730Z,11.6
2023-05-13T02:57:00.426Z,11.6
2023-05-13T02:58:00.158Z,11.6
2023-05-13T02:58:59.710Z,11.6
2023-05-13T03:00:01.482Z,11.5
2023-05-13T03:01:01.441Z,11.5
2023-05-13T03:02:01.078Z,11.5
2023-05-13T03:03:01.322Z,11.4
2023-05-13T03:04:01.076Z,11.5
2023-05-13T03:05:01.052Z,11.4
2023-05-13T03:06:01.102Z,11.4
2023-05-13T03:07:00.782Z,11.4
2023-05-13T03:08:01.142Z,11.3
2023-05-13T03:09:01.498Z,11.3
2023-05-13T03:10:01.164Z,11.3
2023-05-13T03:11:01.047Z,11.3
2023-05-13T03:12:01.436Z,11.3
2023-05-13T03:13:01.076Z,11.3
2023-05-13T03:14:01.045Z,11.3
2023-05-13T03:15:01.070Z,11.3
2023-05-13T03:16:00.781Z,11.3
2023-05-13T03:17:01.050Z,11.3
2023-05-13T03:18:01.120Z,11.3
2023-05-13T03:19:00.710Z,11.3
2023-05-13T03:20:00.469Z,11.3
2023-05-13T03:21:00.166Z,11.3
2023-05-13T03:21:59.755Z,11.1
2023-05-13T03:23:01.679Z,11.1
2023-05-13T03:24:01.262Z,11.2
2023-05-13T03:25:01.271Z,11.2
2023-05-13T03:26:01.129Z,11.3
2023-05-13T03:27:01.117Z,11.3
2023-05-13T03:28:01.047Z,11.2
2023-05-13T03:29:01.046Z,11.2
2023-05-13T03:30:01.848Z,11.2
2023-05-13T03:31:00.771Z,11.2
2023-05-13T03:32:00.551Z,11.2
2023-05-13T03:33:04.259Z,11.2
2023-05-13T03:34:01.918Z,11.1
2023-05-13T03:35:01.905Z,11.2
2023-05-13T03:36:00.666Z,11.1
2023-05-13T03:37:00.309Z,11.1
2023-05-13T03:38:05.058Z,11.1
2023-05-13T03:39:02.042Z,11.1
2023-05-13T03:40:01.288Z,11.1
2023-05-13T03:41:01.506Z,11.1
2023-05-13T03:42:04.650Z,11.1
2023-05-13T03:43:07.689Z,11.1
2023-05-13T03:44:02.728Z,11.1
2023-05-13T03:45:01.340Z,11.1
2023-05-13T03:46:01.063Z,11.1
2023-05-13T03:47:01.105Z,11.1
2023-05-13T03:48:11.642Z,11.1
2023-05-13T03:49:01.241Z,11.1
2023-05-13T03:50:04.033Z,11.1
2023-05-13T03:51:01.076Z,11.2
2023-05-13T03:52:01.100Z,11.3
2023-05-13T03:53:15.570Z,11.3
2023-05-13T03:54:01.215Z,11.3
2023-05-13T03:55:01.375Z,11.3
2023-05-13T03:56:01.238Z,11.3
2023-05-13T03:57:01.243Z,11.3
2023-05-13T03:58:00.509Z,11.3
2023-05-13T03:59:00.118Z,11.4
2023-05-13T03:59:59.787Z,11.5
2023-05-13T04:01:05.100Z,11.5
2023-05-13T04:02:01.789Z,11.5
2023-05-13T04:03:01.449Z,11.5
2023-05-13T04:04:01.455Z,11.5
2023-05-13T04:05:01.199Z,11.5
2023-05-13T04:06:01.205Z,11.6
2023-05-13T04:07:01.103Z,11.6
2023-05-13T04:08:01.079Z,11.6
2023-05-13T04:09:01.105Z,11.7
2023-05-13T04:10:01.449Z,11.8
2023-05-13T04:11:01.105Z,11.8
2023-05-13T04:12:01.170Z,11.8
2023-05-13T04:13:01.117Z,11.8
2023-05-13T04:14:01.530Z,11.8
2023-05-13T04:15:00.737Z,11.8
2023-05-13T04:16:00.358Z,11.9
2023-05-13T04:17:00.123Z,11.9
2023-05-13T04:17:59.739Z,11.9
2023-05-13T04:19:01.794Z,12
2023-05-13T04:20:01.404Z,12
2023-05-13T04:21:02.077Z,12
2023-05-13T04:22:01.133Z,12
2023-05-13T04:23:01.084Z,12
2023-05-13T04:24:01.073Z,12
2023-05-13T04:25:01.102Z,12.1
2023-05-13T04:26:01.114Z,12.1
2023-05-13T04:27:01.703Z,12.2
2023-05-13T04:28:01.176Z,12.2
2023-05-13T04:29:01.038Z,12.3
2023-05-13T04:30:01.132Z,12.3
2023-05-13T04:31:01.034Z,12.3
2023-05-13T04:32:01.392Z,12.3
2023-05-13T04:33:01.241Z,12.3
2023-05-13T04:34:01.445Z,12.3
2023-05-13T04:35:02.082Z,12.3
2023-05-13T04:36:01.782Z,12.3
2023-05-13T04:37:01.056Z,12.4
2023-05-13T04:38:01.082Z,12.4
2023-05-13T04:39:01.083Z,12.5
2023-05-13T04:40:01.099Z,12.5
2023-05-13T04:41:01.490Z,12.6
2023-05-13T04:42:01.487Z,12.7
2023-05-13T04:43:01.125Z,12.7
2023-05-13T04:44:01.258Z,12.8
2023-05-13T04:45:01.114Z,12.8
2023-05-13T04:46:01.160Z,12.8
2023-05-13T04:47:01.019Z,12.9
2023-05-13T04:48:01.117Z,12.9
2023-05-13T04:49:01.398Z,12.9
2023-05-13T04:50:01.070Z,12.9
2023-05-13T04:51:01.267Z,13
2023-05-13T04:52:01.865Z,13
2023-05-13T04:53:00.553Z,13
2023-05-13T04:54:00.265Z,13
2023-05-13T04:55:00.273Z,13
2023-05-13T04:55:59.976Z,13
2023-05-13T04:56:59.658Z,13
2023-05-13T04:58:01.402Z,13.1
2023-05-13T04:59:01.127Z,13.1
2023-05-13T05:00:01.190Z,13.1
2023-05-13T05:01:01.167Z,13.1
2023-05-13T05:02:01.183Z,13.2
2023-05-13T05:03:01.174Z,13.2
2023-05-13T05:04:01.299Z,13.2
2023-05-13T05:05:01.167Z,13.3
2023-05-13T05:06:00.446Z,13.3
2023-05-13T05:07:00.021Z,13.4
2023-05-13T05:07:59.548Z,13.5
2023-05-13T05:09:01.755Z,13.6
2023-05-13T05:10:02.223Z,13.7
2023-05-13T05:11:02.613Z,13.8
2023-05-13T05:12:01.119Z,13.9
2023-05-13T05:13:01.115Z,13.9
2023-05-13T05:14:01.460Z,14
2023-05-13T05:15:01.812Z,14.1
2023-05-13T05:16:02.977Z,14.1
2023-05-13T05:17:01.096Z,14.3
2023-05-13T05:18:01.145Z,14.4
2023-05-13T05:19:04.676Z,14.5
2023-05-13T05:20:01.051Z,14.6
2023-05-13T05:21:02.590Z,14.8
2023-05-13T05:22:02.152Z,14.9
2023-05-13T05:23:01.754Z,15
2023-05-13T05:24:09.080Z,15.2
2023-05-13T05:25:01.469Z,15.4
2023-05-13T05:26:11.209Z,15.5
2023-05-13T05:27:01.092Z,15.7
2023-05-13T05:28:01.233Z,15.8
2023-05-13T05:29:11.742Z,16
2023-05-13T05:30:01.139Z,15.9
2023-05-13T05:31:00.927Z,15.9
2023-05-13T05:32:01.339Z,15.8
2023-05-13T05:33:02.450Z,15.9
2023-05-13T05:34:14.738Z,16
2023-05-13T05:35:01.109Z,16.1
2023-05-13T05:36:01.664Z,16.2
2023-05-13T05:37:02.378Z,16.5
2023-05-13T05:38:04.133Z,16.5
2023-05-13T05:39:16.706Z,16.6
2023-05-13T05:40:01.029Z,16.6
2023-05-13T05:41:01.064Z,16.5
2023-05-13T05:42:01.024Z,16.7
2023-05-13T05:43:01.090Z,17
2023-05-13T05:44:01.520Z,17.1
2023-05-13T05:45:00.778Z,16.9
2023-05-13T05:46:00.365Z,16.8
2023-05-13T05:46:59.988Z,16.8
2023-05-13T05:47:59.770Z,16.8
2023-05-13T05:49:01.378Z,16.9
2023-05-13T05:50:01.044Z,17
2023-05-13T05:51:00.706Z,17.2
2023-05-13T05:52:00.315Z,17.3
2023-05-13T05:52:59.914Z,17.4
2023-05-13T05:53:59.676Z,17.5
2023-05-13T05:55:02.075Z,17.6
2023-05-13T05:56:01.345Z,17.6
2023-05-13T05:57:01.513Z,17.6
2023-05-13T05:58:01.141Z,17.7
2023-05-13T05:59:01.518Z,17.8
2023-05-13T06:00:01.869Z,17.7
2023-05-13T06:01:01.234Z,17.9
2023-05-13T06:02:01.132Z,18
2023-05-13T06:03:01.301Z,18.1
2023-05-13T06:04:01.271Z,18
2023-05-13T06:05:01.921Z,17.7
2023-05-13T06:06:01.027Z,17.6
2023-05-13T06:07:01.151Z,17.6
2023-05-13T06:08:01.050Z,17.5
2023-05-13T06:09:01.041Z,17.5
2023-05-13T06:10:01.070Z,17.4
2023-05-13T06:11:01.048Z,17.4
2023-05-13T06:12:01.099Z,17.5
2023-05-13T06:13:01.071Z,17.5
2023-05-13T06:14:00.886Z,17.4
2023-05-13T06:15:00.688Z,17.3
2023-05-13T06:16:00.420Z,17.3
2023-05-13T06:17:00.058Z,17.3
2023-05-13T06:17:59.812Z,17.3
2023-05-13T06:18:59.525Z,17.2
2023-05-13T06:20:01.164Z,17.1
2023-05-13T06:21:01.123Z,17.1
2023-05-13T06:22:03.287Z,17
2023-05-13T06:23:01.032Z,17
2023-05-13T06:24:01.040Z,16.9
2023-05-13T06:25:01.057Z,16.6
2023-05-13T06:26:01.064Z,16.5
2023-05-13T06:27:01.079Z,16.5
2023-05-13T06:28:03.063Z,16.5
2023-05-13T06:29:01.024Z,16.5
2023-05-13T06:30:01.012Z,16.3
2023-05-13T06:31:01.328Z,16.1
2023-05-13T06:32:02.530Z,16
2023-05-13T06:33:02.686Z,15.8
2023-05-13T06:34:02.128Z,15.8
2023-05-13T06:35:00.515Z,15.7
2023-05-13T06:36:00.305Z,15.6
2023-05-13T06:36:59.895Z,15.6
2023-05-13T06:37:59.440Z,15.6
2023-05-13T06:39:01.839Z,15.5
2023-05-13T06:40:01.081Z,15.5
2023-05-13T06:41:01.055Z,15.5
2023-05-13T06:42:01.048Z,15.5
2023-05-13T06:43:01.066Z,15.5
2023-05-13T06:44:01.069Z,15.4
2023-05-13T06:45:01.085Z,15.3
2023-05-13T06:46:01.098Z,15.3
2023-05-13T06:47:01.110Z,15.2
2023-05-13T06:48:01.568Z,15.2
2023-05-13T06:49:01.988Z,15.2
2023-05-13T06:50:01.146Z,15.2
2023-05-13T06:51:01.762Z,15.2
2023-05-13T06:52:01.129Z,15.3
2023-05-13T06:53:01.135Z,15.3
2023-05-13T06:54:01.037Z,15.3
2023-05-13T06:55:01.067Z,15.3
2023-05-13T06:56:03.691Z,15.3
2023-05-13T06:57:01.167Z,15.3
2023-05-13T06:58:01.201Z,15.3
2023-05-13T06:59:02.782Z,15.4
2023-05-13T07:00:01.077Z,15.4
2023-05-13T07:01:01.035Z,15.4
2023-05-13T07:02:01.010Z,15.4
2023-05-13T07:03:01.036Z,15.3
2023-05-13T07:04:01.141Z,15.4
2023-05-13T07:05:01.096Z,15.4
2023-05-13T07:06:01.407Z,15.5
2023-05-13T07:07:02.028Z,15.5
2023-05-13T07:08:01.136Z,15.6
2023-05-13T07:09:01.264Z,15.6
2023-05-13T07:10:03.688Z,15.7
2023-05-13T07:11:01.430Z,15.8
2023-05-13T07:12:01.340Z,15.8
2023-05-13T07:13:02.488Z,15.9
2023-05-13T07:14:01.048Z,16
2023-05-13T07:15:05.732Z,16
2023-05-13T07:16:01.066Z,16
2023-05-13T07:17:01.126Z,16
2023-05-13T07:18:01.379Z,16
2023-05-13T07:19:01.129Z,16
2023-05-13T07:20:09.434Z,15.9
2023-05-13T07:21:01.108Z,15.8
2023-05-13T07:22:01.204Z,15.8
2023-05-13T07:23:01.390Z,15.9
2023-05-13T07:24:01.370Z,15.9
2023-05-13T07:25:11.934Z,16
2023-05-13T07:26:01.131Z,16
2023-05-13T07:27:00.857Z,16
2023-05-13T07:28:01.028Z,15.9
2023-05-13T07:29:00.424Z,16
2023-05-13T07:30:14.284Z,16
2023-05-13T07:31:01.092Z,16
2023-05-13T07:32:01.097Z,16.1
2023-05-13T07:33:01.375Z,16.1
2023-05-13T07:34:01.292Z,16.1
2023-05-13T07:35:15.948Z,16.1
2023-05-13T07:36:02.933Z,16.2
2023-05-13T07:37:01.121Z,16.2
2023-05-13T07:38:01.112Z,16.2
2023-05-13T07:39:02.074Z,16.3
2023-05-13T07:40:01.116Z,16.4
2023-05-13T07:41:01.023Z,16.4
2023-05-13T07:42:01.412Z,16.5
2023-05-13T07:43:01.038Z,16.5
2023-05-13T07:44:01.047Z,16.5
2023-05-13T07:45:01.350Z,16.5
2023-05-13T07:46:01.078Z,16.5
2023-05-13T07:47:01.138Z,16.4
2023-05-13T07:48:01.105Z,16.4
2023-05-13T07:49:01.124Z,16.4
2023-05-13T07:50:01.101Z,16.4
2023-05-13T07:51:01.478Z,16.4
2023-05-13T07:52:02.117Z,16.5
2023-05-13T07:53:01.229Z,16.5
2023-05-13T07:54:01.135Z,16.5
2023-05-13T07:55:00.814Z,16.5
2023-05-13T07:56:00.407Z,16.4
2023-05-13T07:57:00.109Z,16.5
2023-05-13T07:57:59.696Z,16.5
2023-05-13T07:59:01.741Z,16.5
2023-05-13T08:00:01.715Z,16.5
2023-05-13T08:01:02.034Z,16.5
2023-05-13T08:02:02.265Z,16.6
2023-05-13T08:03:01.902Z,16.6
2023-05-13T08:04:02.272Z,16.6
2023-05-13T08:05:01.136Z,16.6
2023-05-13T08:06:01.081Z,16.7
2023-05-13T08:07:01.019Z,16.7
2023-05-13T08:08:01.194Z,16.7
2023-05-13T08:09:00.749Z,16.7
2023-05-13T08:10:00.697Z,16.7
2023-05-13T08:11:00.440Z,16.7
2023-05-13T08:12:00.042Z,16.8
2023-05-13T08:12:59.688Z,16.8
2023-05-13T08:14:01.716Z,16.8
2023-05-13T08:15:02.121Z,16.8
2023-05-13T08:16:02.617Z,16.8
2023-05-13T08:17:01.082Z,16.9
2023-05-13T08:18:01.491Z,17
2023-05-13T08:19:00.915Z,17
2023-05-13T08:20:00.565Z,17
2023-05-13T08:21:00.253Z,17
2023-05-13T08:21:59.851Z,17.1
2023-05-13T08:22:59.606Z,17.1
2023-05-13T08:24:01.186Z,17.2
2023-05-13T08:25:01.869Z,17.2
2023-05-13T08:26:01.495Z,17.2
2023-05-13T08:27:01.122Z,17.2
2023-05-13T08:28:01.129Z,17.3
2023-05-13T08:29:01.062Z,17.3
2023-05-13T08:30:01.064Z,17.3
2023-05-13T08:31:01.044Z,17.4
2023-05-13T08:32:01.061Z,17.4
2023-05-13T08:33:01.094Z,17.5
2023-05-13T08:34:01.075Z,17.5
2023-05-13T08:35:00.714Z,17.4
2023-05-13T08:36:00.448Z,17.4
2023-05-13T08:37:00.073Z,17.4
2023-05-13T08:37:59.661Z,17.4
2023-05-13T08:39:01.677Z,17.5
2023-05-13T08:40:02.428Z,17.5
2023-05-13T08:41:01.405Z,17.5
2023-05-13T08:42:01.118Z,17.5
2023-05-13T08:43:01.437Z,17.5
2023-05-13T08:44:01.967Z,17.5
2023-05-13T08:45:01.057Z,17.5
2023-05-13T08:46:01.702Z,17.5
2023-05-13T08:47:01.185Z,17.6
2023-05-13T08:48:01.167Z,17.8
2023-05-13T08:49:00.851Z,17.8
2023-05-13T08:50:00.555Z,17.9
2023-05-13T08:51:00.289Z,18
2023-05-13T08:51:59.890Z,18
2023-05-13T08:52:59.572Z,18
2023-05-13T08:54:01.187Z,18.1
2023-05-13T08:55:00.904Z,18.2
2023-05-13T08:56:01.533Z,18.2
2023-05-13T08:57:01.080Z,18.2
2023-05-13T08:58:01.124Z,18.3
2023-05-13T08:59:01.142Z,18.3
2023-05-13T09:00:01.039Z,18.3
2023-05-13T09:01:04.093Z,18.4
2023-05-13T09:02:01.051Z,18.4
2023-05-13T09:03:01.076Z,18.5
2023-05-13T09:04:01.097Z,18.5
2023-05-13T09:05:01.515Z,18.5
2023-05-13T09:06:07.622Z,18.5
2023-05-13T09:07:01.069Z,18.5
2023-05-13T09:08:01.108Z,18.6
2023-05-13T09:09:01.092Z,18.7
2023-05-13T09:10:01.107Z,18.8
2023-05-13T09:11:09.960Z,18.8
2023-05-13T09:12:01.152Z,18.8
2023-05-13T09:13:01.489Z,18.8
2023-05-13T09:14:01.344Z,18.7
2023-05-13T09:15:01.037Z,18.6
2023-05-13T09:16:13.297Z,18.7
2023-05-13T09:17:01.937Z,18.7
2023-05-13T09:18:01.109Z,18.8
2023-05-13T09:19:01.377Z,18.8
2023-05-13T09:20:01.149Z,18.9
2023-05-13T09:21:15.587Z,19
2023-05-13T09:22:01.568Z,19
2023-05-13T09:23:01.289Z,19.1
2023-05-13T09:24:01.085Z,19.1
2023-05-13T09:25:01.030Z,19
2023-05-13T09:26:01.098Z,19
2023-05-13T09:27:01.437Z,19
2023-05-13T09:28:01.132Z,19
2023-05-13T09:29:01.105Z,19.1
2023-05-13T09:30:01.139Z,19.1
2023-05-13T09:31:01.178Z,19
2023-05-13T09:32:01.423Z,19
2023-05-13T09:33:01.073Z,19
2023-05-13T09:34:01.326Z,19.1
2023-05-13T09:35:01.064Z,19.1
2023-05-13T09:36:01.263Z,19.1
2023-05-13T09:37:01.254Z,19.1
2023-05-13T09:38:01.072Z,19.1
2023-05-13T09:39:01.081Z,19.2
2023-05-13T09:40:01.135Z,19.3
2023-05-13T09:41:01.087Z,19.3
2023-05-13T09:43:01.400Z,19.3
2023-05-13T09:44:01.148Z,19.3
2023-05-13T09:45:01.104Z,19.3
2023-05-13T09:46:01.129Z,19.4
2023-05-13T09:47:01.135Z,19.5
2023-05-13T09:48:01.054Z,19.5
2023-05-13T09:49:01.045Z,19.5
2023-05-13T09:50:01.052Z,19.5
2023-05-13T09:51:01.083Z,19.5
2023-05-13T09:52:01.204Z,19.5
2023-05-13T09:53:01.068Z,19.6
2023-05-13T09:54:01.077Z,19.6
2023-05-13T09:55:01.041Z,19.6
2023-05-13T09:56:01.035Z,19.5
2023-05-13T09:57:01.121Z,19.5
2023-05-13T09:58:01.106Z,19.5
2023-05-13T09:59:00.898Z,19.5
2023-05-13T10:00:01.126Z,19.5
2023-05-13T10:01:01.214Z,19.5
2023-05-13T10:02:01.499Z,19.4
2023-05-13T10:03:01.583Z,19.5
2023-05-13T10:04:02.432Z,19.5
2023-05-13T10:05:01.246Z,19.5
2023-05-13T10:06:03.547Z,19.5
2023-05-13T10:07:01.219Z,19.5
2023-05-13T10:08:01.954Z,19.6
2023-05-13T10:09:01.494Z,19.6
2023-05-13T10:10:01.112Z,19.7
2023-05-13T10:11:01.082Z,19.7
2023-05-13T10:12:01.091Z,19.8
2023-05-13T10:13:01.826Z,19.8
2023-05-13T10:14:01.845Z,19.7
2023-05-13T10:15:01.032Z,19.8
2023-05-13T10:16:01.022Z,19.8
2023-05-13T10:17:01.615Z,19.8
2023-05-13T10:18:02.370Z,19.8
2023-05-13T10:19:02.393Z,19.7
2023-05-13T10:20:01.044Z,19.7
2023-05-13T10:21:01.040Z,19.7
2023-05-13T10:22:01.047Z,19.8
2023-05-13T10:23:01.023Z,19.8
2023-05-13T10:24:01.426Z,19.8
2023-05-13T10:25:01.486Z,19.9
2023-05-13T10:26:01.439Z,20
2023-05-13T10:27:00.591Z,20
2023-05-13T10:28:00.176Z,20
2023-05-13T10:28:59.845Z,20
2023-05-13T10:30:03.512Z,19.9
2023-05-13T10:31:01.500Z,19.8
2023-05-13T10:32:01.179Z,19.8
2023-05-13T10:33:01.527Z,19.9
2023-05-13T10:34:01.395Z,19.9
2023-05-13T10:35:01.054Z,19.9
2023-05-13T10:36:03.839Z,19.8
2023-05-13T10:37:02.085Z,19.8
2023-05-13T10:38:02.069Z,19.8
2023-05-13T10:39:01.903Z,19.9
2023-05-13T10:40:00.753Z,19.9
2023-05-13T10:41:00.528Z,19.9
2023-05-13T10:42:00.251Z,20
2023-05-13T10:42:59.950Z,20
2023-05-13T10:43:59.551Z,20
2023-05-13T10:45:01.093Z,20.1
2023-05-13T10:46:02.000Z,20.1
2023-05-13T10:47:03.510Z,20.1
2023-05-13T10:48:01.584Z,20.1
2023-05-13T10:49:01.142Z,20.1
2023-05-13T10:50:01.843Z,20.1
2023-05-13T10:51:02.390Z,20.1
2023-05-13T10:52:06.012Z,20
2023-05-13T10:53:01.049Z,20
2023-05-13T10:54:01.013Z,20
2023-05-13T10:55:01.070Z,20
2023-05-13T10:56:01.073Z,20
2023-05-13T10:57:09.319Z,20
2023-05-13T10:58:01.166Z,19.9
2023-05-13T10:59:00.891Z,19.9
2023-05-13T11:00:01.089Z,19.9
2023-05-13T11:01:01.094Z,20
2023-05-13T11:02:11.113Z,20
2023-05-13T11:03:01.535Z,20
2023-05-13T11:04:01.310Z,20
2023-05-13T11:05:01.181Z,20.1
2023-05-13T11:06:01.046Z,20.1
2023-05-13T11:07:13.961Z,20.2
2023-05-13T11:08:01.034Z,20.2
2023-05-13T11:09:01.039Z,20.3
2023-05-13T11:10:01.046Z,20.4
2023-05-13T11:11:01.354Z,20.5
2023-05-13T11:12:16.889Z,20.6
2023-05-13T11:13:01.263Z,20.6
2023-05-13T11:14:01.027Z,20.6
2023-05-13T11:15:01.100Z,20.7
2023-05-13T11:16:01.112Z,20.7
2023-05-13T11:17:01.089Z,20.8
2023-05-13T11:18:01.012Z,20.7
2023-05-13T11:19:00.840Z,20.6
2023-05-13T11:20:01.153Z,20.5
2023-05-13T11:21:02.390Z,20.4
2023-05-13T11:22:01.507Z,20.3
2023-05-13T11:23:01.249Z,20.3
2023-05-13T11:24:01.835Z,20.3
2023-05-13T11:25:01.989Z,20.3
2023-05-13T11:26:01.045Z,20.4
2023-05-13T11:27:01.163Z,20.5
2023-05-13T11:28:01.084Z,20.5
2023-05-13T11:29:01.171Z,20.4
2023-05-13T11:30:01.486Z,20.5
2023-05-13T11:31:01.216Z,20.5
2023-05-13T11:32:01.317Z,20.5
2023-05-13T11:33:02.069Z,20.6
2023-05-13T11:34:01.111Z,20.6
2023-05-13T11:35:01.036Z,20.6
2023-05-13T11:36:01.162Z,20.6
2023-05-13T11:37:01.018Z,20.7
2023-05-13T11:38:01.346Z,20.8
2023-05-13T11:39:01.519Z,21
2023-05-13T11:40:01.046Z,21.1
2023-05-13T11:41:01.047Z,21.1
2023-05-13T11:42:03.804Z,21.2
2023-05-13T11:43:01.133Z,21.3
2023-05-13T11:44:01.107Z,21.3
2023-05-13T11:45:01.073Z,21.3
2023-05-13T11:46:01.161Z,21.2
2023-05-13T11:47:01.092Z,21.1
2023-05-13T11:48:01.121Z,21.1
2023-05-13T11:49:01.107Z,21
2023-05-13T11:50:01.369Z,21
2023-05-13T11:51:01.360Z,20.9
2023-05-13T11:52:01.415Z,20.8
2023-05-13T11:53:02.580Z,20.8
2023-05-13T11:54:01.054Z,20.8
2023-05-13T11:55:01.024Z,20.8
2023-05-13T11:56:01.038Z,20.8
2023-05-13T11:57:01.061Z,20.8
2023-05-13T11:58:01.078Z,20.8
2023-05-13T11:59:00.752Z,20.9
2023-05-13T12:00:00.343Z,20.9
2023-05-13T12:01:00.039Z,20.9
2023-05-13T12:01:59.666Z,20.9
2023-05-13T12:03:02.007Z,20.9
2023-05-13T12:04:01.299Z,20.9
2023-05-13T12:05:01.260Z,21
2023-05-13T12:06:01.126Z,21
2023-05-13T12:07:01.122Z,21
2023-05-13T12:08:01.549Z,20.9
2023-05-13T12:09:01.968Z,20.9
2023-05-13T12:10:01.379Z,20.8
2023-05-13T12:11:01.049Z,20.8
2023-05-13T12:12:01.018Z,20.8
2023-05-13T12:13:01.034Z,20.7
2023-05-13T12:14:01.018Z,20.7
2023-05-13T12:15:02.420Z,20.6
2023-05-13T12:16:01.311Z,20.6
2023-05-13T12:17:01.403Z,20.6
2023-05-13T12:18:01.129Z,20.6
2023-05-13T12:19:00.925Z,20.6
2023-05-13T12:20:01.040Z,20.6
2023-05-13T12:21:01.037Z,20.5
2023-05-13T12:22:01.488Z,20.5
2023-05-13T12:23:01.125Z,20.5
2023-05-13T12:24:01.747Z,20.4
2023-05-13T12:25:01.860Z,20.3
2023-05-13T12:26:01.998Z,20.3
2023-05-13T12:27:01.188Z,20.3
2023-05-13T12:28:01.043Z,20.3
2023-05-13T12:29:01.013Z,20.3
2023-05-13T12:30:01.096Z,20.3
2023-05-13T12:31:01.233Z,20.3
2023-05-13T12:32:01.997Z,20.3
2023-05-13T12:33:01.148Z,20.3
2023-05-13T12:34:01.081Z,20.3
2023-05-13T12:35:01.112Z,20.3
2023-05-13T12:36:01.117Z,20.3
2023-05-13T12:37:00.867Z,20.3
2023-05-13T12:38:01.619Z,20.3
2023-05-13T12:39:01.052Z,20.3
2023-05-13T12:40:02.045Z,20.3
2023-05-13T12:41:02.063Z,20.3
2023-05-13T12:42:01.048Z,20.4
2023-05-13T12:43:04.810Z,20.4
2023-05-13T12:44:01.130Z,20.4
2023-05-13T12:45:01.358Z,20.5
2023-05-13T12:46:01.664Z,20.4
2023-05-13T12:47:01.605Z,20.5
2023-05-13T12:48:07.655Z,20.5
2023-05-13T12:49:01.403Z,20.5
2023-05-13T12:50:01.073Z,20.5
2023-05-13T12:51:02.222Z,20.5
2023-05-13T12:52:01.389Z,20.5
2023-05-13T12:53:10.880Z,20.5
2023-05-13T12:54:01.515Z,20.5
2023-05-13T12:55:01.220Z,20.5
2023-05-13T12:56:02.359Z,20.5
2023-05-13T12:57:01.029Z,20.5
2023-05-13T12:58:13.256Z,20.4
2023-05-13T12:59:00.624Z,20.3
2023-05-13T13:00:00.519Z,20.3
2023-05-13T13:01:00.260Z,20.3
2023-05-13T13:01:59.886Z,20.3
2023-05-13T13:03:14.226Z,20.4
2023-05-13T13:04:01.186Z,20.3
2023-05-13T13:05:02.021Z,20.3
2023-05-13T13:06:01.101Z,20.3
2023-05-13T13:07:01.113Z,20.3
2023-05-13T13:08:16.080Z,20.3
2023-05-13T13:09:01.504Z,20.3
2023-05-13T13:10:01.125Z,20.4
2023-05-13T13:11:01.312Z,20.4
2023-05-13T13:12:02.096Z,20.3
2023-05-13T13:13:01.042Z,20.3
2023-05-13T13:14:01.092Z,20.4
2023-05-13T13:15:01.049Z,20.5
2023-05-13T13:16:01.134Z,20.5
2023-05-13T13:17:01.012Z,20.5
2023-05-13T13:18:01.127Z,20.5
2023-05-13T13:19:01.750Z,20.4
2023-05-13T13:20:01.090Z,20.5
2023-05-13T13:21:01.149Z,20.5
2023-05-13T13:22:01.914Z,20.5
2023-05-13T13:23:01.104Z,20.4
2023-05-13T13:24:01.187Z,20.5
2023-05-13T13:25:01.146Z,20.5
2023-05-13T13:26:01.123Z,20.6